sensor_id;sensor_type;location;lat;lon;timestamp;temperature;humidity
21001;DHT22;10658;50.920;12.238;2023-05-21T00:01:42;14.00;99.90
21001;DHT22;10658;50.920;12.238;2023-05-21T00:05:45;14.00;99.90
21001;DHT22;10658;50.920;12.238;2023-05-21T00:09:46;13.90;99.90
21001;DHT22;10658;50.920;12.238;2023-05-21T00:13:47;13.90;99.90
21001;DHT22;10658;50.920;12.238;2023-05-21T00:17:47;13.80;99.90
21001;DHT22;10658;50.920;12.238;2023-05-21T00:21:48;13.70;99.90
21001;DHT22;10658;50.920;12.238;2023-05-21T00:25:49;13.60;99.90
21001;DHT22;10658;50.920;12.238;2023-05-21T00:29:51;13.50;99.90
21001;DHT22;10658;50.920;12.238;2023-05-21T00:33:52;13.40;99.90
21001;DHT22;10658;50.920;12.238;2023-05-21T00:37:52;13.30;99.90
21001;DHT22;10658;50.920;12.238;2023-05-21T00:41:53;13.20;99.90
21001;DHT22;10658;50.920;12.238;2023-05-21T00:45:56;13.10;99.90
21001;DHT22;10658;50.920;12.238;2023-05-21T00:49:58;13.00;99.90
21001;DHT22;10658;50.920;12.238;2023-05-21T00:53:59;12.90;99.90
21001;DHT22;10658;50.920;12.238;2023-05-21T00:58:00;13.00;99.90
21001;DHT22;10658;50.920;12.238;2023-05-21T01:02:02;13.00;99.90
21001;DHT22;10658;50.920;12.238;2023-05-21T01:06:07;12.90;99.90
21001;DHT22;10658;50.920;12.238;2023-05-21T01:10:09;12.90;99.90
21001;DHT22;10658;50.920;12.238;2023-05-21T01:14:11;12.70;99.90
21001;DHT22;10658;50.920;12.238;2023-05-21T01:18:12;12.60;99.90
21001;DHT22;10658;50.920;12.238;2023-05-21T01:22:14;12.50;99.90
21001;DHT22;10658;50.920;12.238;2023-05-21T01:26:17;12.50;99.90
21001;DHT22;10658;50.920;12.238;2023-05-21T01:30:19;12.50;99.90
21001;DHT22;10658;50.920;12.238;2023-05-21T01:34:26;12.50;99.90
21001;DHT22;10658;50.920;12.238;2023-05-21T01:38:41;12.40;99.90
21001;DHT22;10658;50.920;12.238;2023-05-21T01:42:43;12.30;99.90
21001;DHT22;10658;50.920;12.238;2023-05-21T01:46:45;12.40;99.90
21001;DHT22;10658;50.920;12.238;2023-05-21T01:50:46;12.40;99.90
21001;DHT22;10658;50.920;12.238;2023-05-21T01:54:47;12.40;99.90
21001;DHT22;10658;50.920;12.238;2023-05-21T01:58:51;12.30;99.90
21001;DHT22;10658;50.920;12.238;2023-05-21T02:02:52;12.30;99.90
21001;DHT22;10658;50.920;12.238;2023-05-21T02:06:53;12.30;99.90
21001;DHT22;10658;50.920;12.238;2023-05-21T02:10:54;12.50;99.90
21001;DHT22;10658;50.920;12.238;2023-05-21T02:14:55;12.50;99.90
21001;DHT22;10658;50.920;12.238;2023-05-21T02:18:57;12.40;99.90
21001;DHT22;10658;50.920;12.238;2023-05-21T02:23:00;12.40;99.90
21001;DHT22;10658;50.920;12.238;2023-05-21T02:27:00;12.40;99.90
21001;DHT22;10658;50.920;12.238;2023-05-21T02:31:02;12.20;99.90
21001;DHT22;10658;50.920;12.238;2023-05-21T02:35:04;12.00;99.90
21001;DHT22;10658;50.920;12.238;2023-05-21T02:39:04;11.90;99.90
21001;DHT22;10658;50.920;12.238;2023-05-21T02:43:05;11.80;99.90
21001;DHT22;10658;50.920;12.238;2023-05-21T02:47:06;11.70;99.90
21001;DHT22;10658;50.920;12.238;2023-05-21T02:51:09;11.80;99.90
21001;DHT22;10658;50.920;12.238;2023-05-21T02:55:11;11.80;99.90
21001;DHT22;10658;50.920;12.238;2023-05-21T02:59:12;11.80;99.90
21001;DHT22;10658;50.920;12.238;2023-05-21T03:03:13;11.90;99.90
21001;DHT22;10658;50.920;12.238;2023-05-21T03:07:15;11.80;99.90
21001;DHT22;10658;50.920;12.238;2023-05-21T03:11:19;11.80;99.90
21001;DHT22;10658;50.920;12.238;2023-05-21T03:15:21;11.70;99.90
21001;DHT22;10658;50.920;12.238;2023-05-21T03:19:25;11.60;99.90
21001;DHT22;10658;50.920;12.238;2023-05-21T03:23:26;11.40;99.90
21001;DHT22;10658;50.920;12.238;2023-05-21T03:27:27;11.30;99.90
21001;DHT22;10658;50.920;12.238;2023-05-21T03:31:28;11.40;99.90
21001;DHT22;10658;50.920;12.238;2023-05-21T03:35:41;11.50;99.90
21001;DHT22;10658;50.920;12.238;2023-05-21T03:39:42;11.70;99.90
21001;DHT22;10658;50.920;12.238;2023-05-21T03:43:43;11.70;99.90
21001;DHT22;10658;50.920;12.238;2023-05-21T03:47:44;11.80;99.90
21001;DHT22;10658;50.920;12.238;2023-05-21T03:51:45;11.90;99.90
21001;DHT22;10658;50.920;12.238;2023-05-21T03:55:49;12.00;99.90
21001;DHT22;10658;50.920;12.238;2023-05-21T03:59:55;12.20;99.90
21001;DHT22;10658;50.920;12.238;2023-05-21T04:03:58;12.20;99.90
21001;DHT22;10658;50.920;12.238;2023-05-21T04:08:02;12.40;99.90
21001;DHT22;10658;50.920;12.238;2023-05-21T04:12:03;12.50;99.90
21001;DHT22;10658;50.920;12.238;2023-05-21T04:16:04;12.50;99.90
21001;DHT22;10658;50.920;12.238;2023-05-21T04:20:08;12.60;99.90
21001;DHT22;10658;50.920;12.238;2023-05-21T04:24:10;12.70;99.90
21001;DHT22;10658;50.920;12.238;2023-05-21T04:28:26;12.70;99.90
21001;DHT22;10658;50.920;12.238;2023-05-21T04:32:30;12.80;99.90
21001;DHT22;10658;50.920;12.238;2023-05-21T04:36:34;12.80;99.90
21001;DHT22;10658;50.920;12.238;2023-05-21T04:40:34;13.00;99.90
21001;DHT22;10658;50.920;12.238;2023-05-21T04:44:36;13.20;99.90
21001;DHT22;10658;50.920;12.238;2023-05-21T04:48:38;13.30;99.90
21001;DHT22;10658;50.920;12.238;2023-05-21T04:52:42;13.40;99.90
21001;DHT22;10658;50.920;12.238;2023-05-21T04:56:45;13.50;99.90
21001;DHT22;10658;50.920;12.238;2023-05-21T05:00:47;13.50;99.90
21001;DHT22;10658;50.920;12.238;2023-05-21T05:04:50;13.60;99.90
21001;DHT22;10658;50.920;12.238;2023-05-21T05:08:50;13.60;99.90
21001;DHT22;10658;50.920;12.238;2023-05-21T05:12:51;13.50;99.90
21001;DHT22;10658;50.920;12.238;2023-05-21T05:16:52;13.60;99.90
21001;DHT22;10658;50.920;12.238;2023-05-21T05:20:53;13.60;99.90
21001;DHT22;10658;50.920;12.238;2023-05-21T05:24:54;13.80;99.90
21001;DHT22;10658;50.920;12.238;2023-05-21T05:28:55;14.00;99.90
21001;DHT22;10658;50.920;12.238;2023-05-21T05:32:56;14.00;99.90
21001;DHT22;10658;50.920;12.238;2023-05-21T05:36:57;14.10;99.90
21001;DHT22;10658;50.920;12.238;2023-05-21T05:40:58;14.10;99.90
21001;DHT22;10658;50.920;12.238;2023-05-21T05:45:00;14.30;99.90
21001;DHT22;10658;50.920;12.238;2023-05-21T05:49:01;14.40;99.90
21001;DHT22;10658;50.920;12.238;2023-05-21T05:53:02;14.60;99.90
21001;DHT22;10658;50.920;12.238;2023-05-21T05:57:03;14.70;99.90
21001;DHT22;10658;50.920;12.238;2023-05-21T06:01:04;15.00;99.90
21001;DHT22;10658;50.920;12.238;2023-05-21T06:05:06;15.50;99.90
21001;DHT22;10658;50.920;12.238;2023-05-21T06:09:07;16.30;99.90
21001;DHT22;10658;50.920;12.238;2023-05-21T06:13:08;17.00;99.90
21001;DHT22;10658;50.920;12.238;2023-05-21T06:17:08;17.60;99.90
21001;DHT22;10658;50.920;12.238;2023-05-21T06:21:09;18.00;99.90
21001;DHT22;10658;50.920;12.238;2023-05-21T06:25:10;18.40;99.90
21001;DHT22;10658;50.920;12.238;2023-05-21T06:29:11;18.60;99.90
21001;DHT22;10658;50.920;12.238;2023-05-21T06:33:12;18.90;99.90
21001;DHT22;10658;50.920;12.238;2023-05-21T06:37:13;19.30;99.90
21001;DHT22;10658;50.920;12.238;2023-05-21T06:41:14;19.80;99.90
21001;DHT22;10658;50.920;12.238;2023-05-21T06:45:23;20.20;99.90
21001;DHT22;10658;50.920;12.238;2023-05-21T06:49:28;20.40;99.90
21001;DHT22;10658;50.920;12.238;2023-05-21T06:53:29;20.70;99.90
21001;DHT22;10658;50.920;12.238;2023-05-21T06:57:30;21.10;99.90
21001;DHT22;10658;50.920;12.238;2023-05-21T07:01:31;21.30;99.90
21001;DHT22;10658;50.920;12.238;2023-05-21T07:05:33;21.40;99.90
21001;DHT22;10658;50.920;12.238;2023-05-21T07:09:34;21.60;99.90
21001;DHT22;10658;50.920;12.238;2023-05-21T07:13:35;21.90;99.90
21001;DHT22;10658;50.920;12.238;2023-05-21T07:17:36;22.10;99.90
21001;DHT22;10658;50.920;12.238;2023-05-21T07:21:37;22.20;99.90
21001;DHT22;10658;50.920;12.238;2023-05-21T07:25:40;22.40;99.90
21001;DHT22;10658;50.920;12.238;2023-05-21T07:29:41;22.70;99.90
21001;DHT22;10658;50.920;12.238;2023-05-21T07:33:42;23.20;99.90
21001;DHT22;10658;50.920;12.238;2023-05-21T07:37:45;23.50;99.90
21001;DHT22;10658;50.920;12.238;2023-05-21T07:41:46;23.80;99.90
21001;DHT22;10658;50.920;12.238;2023-05-21T07:45:47;24.00;99.90
21001;DHT22;10658;50.920;12.238;2023-05-21T07:49:48;23.60;99.90
21001;DHT22;10658;50.920;12.238;2023-05-21T07:53:49;23.60;99.90
21001;DHT22;10658;50.920;12.238;2023-05-21T07:57:54;23.60;99.90
21001;DHT22;10658;50.920;12.238;2023-05-21T08:02:01;23.80;99.90
21001;DHT22;10658;50.920;12.238;2023-05-21T08:06:02;24.10;99.90
21001;DHT22;10658;50.920;12.238;2023-05-21T08:10:03;24.10;99.90
21001;DHT22;10658;50.920;12.238;2023-05-21T08:14:05;24.00;99.90
21001;DHT22;10658;50.920;12.238;2023-05-21T08:18:06;23.80;99.90
21001;DHT22;10658;50.920;12.238;2023-05-21T08:22:08;23.70;99.90
21001;DHT22;10658;50.920;12.238;2023-05-21T08:26:12;23.70;99.90
21001;DHT22;10658;50.920;12.238;2023-05-21T08:30:15;23.80;99.90
21001;DHT22;10658;50.920;12.238;2023-05-21T08:34:16;24.20;99.90
21001;DHT22;10658;50.920;12.238;2023-05-21T08:38:28;24.50;99.90
21001;DHT22;10658;50.920;12.238;2023-05-21T08:42:46;24.80;99.90
21001;DHT22;10658;50.920;12.238;2023-05-21T08:46:53;24.80;99.90
21001;DHT22;10658;50.920;12.238;2023-05-21T08:50:57;25.10;99.90
21001;DHT22;10658;50.920;12.238;2023-05-21T08:55:04;25.10;99.90
21001;DHT22;10658;50.920;12.238;2023-05-21T08:59:06;25.20;99.90
21001;DHT22;10658;50.920;12.238;2023-05-21T09:03:10;25.60;99.90
21001;DHT22;10658;50.920;12.238;2023-05-21T09:07:15;25.80;99.90
21001;DHT22;10658;50.920;12.238;2023-05-21T09:11:42;26.00;99.90
21001;DHT22;10658;50.920;12.238;2023-05-21T09:15:45;26.40;99.90
21001;DHT22;10658;50.920;12.238;2023-05-21T09:20:23;26.90;99.90
21001;DHT22;10658;50.920;12.238;2023-05-21T09:24:32;27.30;99.90
21001;DHT22;10658;50.920;12.238;2023-05-21T09:28:34;27.20;99.90
21001;DHT22;10658;50.920;12.238;2023-05-21T09:32:36;27.10;99.90
21001;DHT22;10658;50.920;12.238;2023-05-21T09:36:37;27.30;99.90
21001;DHT22;10658;50.920;12.238;2023-05-21T09:40:43;27.50;99.90
21001;DHT22;10658;50.920;12.238;2023-05-21T09:44:46;27.30;99.90
21001;DHT22;10658;50.920;12.238;2023-05-21T09:48:47;27.20;99.90
21001;DHT22;10658;50.920;12.238;2023-05-21T09:52:50;26.90;99.90
21001;DHT22;10658;50.920;12.238;2023-05-21T09:56:52;27.00;99.90
21001;DHT22;10658;50.920;12.238;2023-05-21T10:00:53;27.00;99.90
21001;DHT22;10658;50.920;12.238;2023-05-21T10:04:54;27.30;99.90
21001;DHT22;10658;50.920;12.238;2023-05-21T10:08:59;27.80;99.90
21001;DHT22;10658;50.920;12.238;2023-05-21T10:13:05;28.40;99.90
21001;DHT22;10658;50.920;12.238;2023-05-21T10:17:09;28.90;99.90
21001;DHT22;10658;50.920;12.238;2023-05-21T10:21:12;29.00;99.90
21001;DHT22;10658;50.920;12.238;2023-05-21T10:25:12;29.00;99.90
21001;DHT22;10658;50.920;12.238;2023-05-21T10:29:14;28.90;99.90
21001;DHT22;10658;50.920;12.238;2023-05-21T10:33:16;28.90;99.90
21001;DHT22;10658;50.920;12.238;2023-05-21T10:37:17;28.50;99.90
21001;DHT22;10658;50.920;12.238;2023-05-21T10:41:19;28.40;99.90
21001;DHT22;10658;50.920;12.238;2023-05-21T10:49:48;28.40;99.90
21001;DHT22;10658;50.920;12.238;2023-05-21T11:02:35;28.20;99.90
21001;DHT22;10658;50.920;12.238;2023-05-21T11:06:35;28.40;99.90
21001;DHT22;10658;50.920;12.238;2023-05-21T11:10:39;28.80;99.90
21001;DHT22;10658;50.920;12.238;2023-05-21T11:14:40;28.60;99.90
21001;DHT22;10658;50.920;12.238;2023-05-21T11:18:56;28.40;99.90
21001;DHT22;10658;50.920;12.238;2023-05-21T11:22:57;28.50;99.90
21001;DHT22;10658;50.920;12.238;2023-05-21T11:26:59;28.40;99.90
21001;DHT22;10658;50.920;12.238;2023-05-21T11:31:27;28.20;99.90
21001;DHT22;10658;50.920;12.238;2023-05-21T11:39:50;27.90;99.90
21001;DHT22;10658;50.920;12.238;2023-05-21T11:43:59;28.00;99.90
21001;DHT22;10658;50.920;12.238;2023-05-21T11:48:00;27.90;99.90
21001;DHT22;10658;50.920;12.238;2023-05-21T11:52:03;28.10;99.90
21001;DHT22;10658;50.920;12.238;2023-05-21T11:56:04;28.70;99.90
21001;DHT22;10658;50.920;12.238;2023-05-21T12:00:13;29.00;99.90
21001;DHT22;10658;50.920;12.238;2023-05-21T12:04:14;29.10;99.90
21001;DHT22;10658;50.920;12.238;2023-05-21T12:08:22;29.00;99.90
21001;DHT22;10658;50.920;12.238;2023-05-21T12:12:27;28.70;99.90
21001;DHT22;10658;50.920;12.238;2023-05-21T12:16:27;28.70;99.90
21001;DHT22;10658;50.920;12.238;2023-05-21T12:20:28;28.70;99.90
21001;DHT22;10658;50.920;12.238;2023-05-21T12:24:33;28.20;99.90
21001;DHT22;10658;50.920;12.238;2023-05-21T12:28:34;27.90;99.90
21001;DHT22;10658;50.920;12.238;2023-05-21T12:32:39;27.90;99.90
21001;DHT22;10658;50.920;12.238;2023-05-21T12:36:43;27.80;99.90
21001;DHT22;10658;50.920;12.238;2023-05-21T12:40:51;28.20;99.90
21001;DHT22;10658;50.920;12.238;2023-05-21T12:44:52;28.30;99.90
21001;DHT22;10658;50.920;12.238;2023-05-21T12:48:54;28.10;99.90
21001;DHT22;10658;50.920;12.238;2023-05-21T12:52:57;27.90;99.90
21001;DHT22;10658;50.920;12.238;2023-05-21T12:57:05;28.20;99.90
21001;DHT22;10658;50.920;12.238;2023-05-21T13:01:10;28.50;99.90
21001;DHT22;10658;50.920;12.238;2023-05-21T13:05:17;28.40;99.90
21001;DHT22;10658;50.920;12.238;2023-05-21T13:09:18;28.20;99.90
21001;DHT22;10658;50.920;12.238;2023-05-21T13:13:19;28.30;99.90
21001;DHT22;10658;50.920;12.238;2023-05-21T13:17:20;28.70;99.90
21001;DHT22;10658;50.920;12.238;2023-05-21T13:21:21;29.10;99.90
21001;DHT22;10658;50.920;12.238;2023-05-21T13:25:24;29.20;99.90
21001;DHT22;10658;50.920;12.238;2023-05-21T13:29:28;29.20;99.90
21001;DHT22;10658;50.920;12.238;2023-05-21T13:33:28;28.90;99.90
21001;DHT22;10658;50.920;12.238;2023-05-21T13:37:31;28.50;99.90
21001;DHT22;10658;50.920;12.238;2023-05-21T13:41:33;28.40;99.90
21001;DHT22;10658;50.920;12.238;2023-05-21T13:45:33;28.30;99.90
21001;DHT22;10658;50.920;12.238;2023-05-21T13:49:35;28.10;99.90
21001;DHT22;10658;50.920;12.238;2023-05-21T13:53:36;28.00;99.90
21001;DHT22;10658;50.920;12.238;2023-05-21T13:57:37;28.10;99.90
21001;DHT22;10658;50.920;12.238;2023-05-21T14:01:37;28.10;99.90
21001;DHT22;10658;50.920;12.238;2023-05-21T14:05:38;28.40;99.90
21001;DHT22;10658;50.920;12.238;2023-05-21T14:09:39;28.80;99.90
21001;DHT22;10658;50.920;12.238;2023-05-21T14:13:40;29.10;99.90
21001;DHT22;10658;50.920;12.238;2023-05-21T14:17:40;29.40;99.90
21001;DHT22;10658;50.920;12.238;2023-05-21T14:21:41;29.60;99.90
21001;DHT22;10658;50.920;12.238;2023-05-21T14:25:42;29.70;99.90
21001;DHT22;10658;50.920;12.238;2023-05-21T14:29:43;29.60;99.90
21001;DHT22;10658;50.920;12.238;2023-05-21T14:33:44;29.60;99.90
21001;DHT22;10658;50.920;12.238;2023-05-21T14:37:44;29.60;99.90
21001;DHT22;10658;50.920;12.238;2023-05-21T14:41:45;29.60;99.90
21001;DHT22;10658;50.920;12.238;2023-05-21T14:45:46;29.60;99.90
21001;DHT22;10658;50.920;12.238;2023-05-21T14:49:46;29.60;99.90
21001;DHT22;10658;50.920;12.238;2023-05-21T14:53:47;29.50;99.90
21001;DHT22;10658;50.920;12.238;2023-05-21T14:57:48;29.20;99.90
21001;DHT22;10658;50.920;12.238;2023-05-21T15:01:49;29.00;99.90
21001;DHT22;10658;50.920;12.238;2023-05-21T15:05:50;28.70;99.90
21001;DHT22;10658;50.920;12.238;2023-05-21T15:09:51;28.50;99.90
21001;DHT22;10658;50.920;12.238;2023-05-21T15:13:51;28.30;99.90
21001;DHT22;10658;50.920;12.238;2023-05-21T15:17:52;28.20;99.90
21001;DHT22;10658;50.920;12.238;2023-05-21T15:21:53;28.20;99.90
21001;DHT22;10658;50.920;12.238;2023-05-21T15:25:54;28.00;99.90
21001;DHT22;10658;50.920;12.238;2023-05-21T15:29:55;28.00;99.90
21001;DHT22;10658;50.920;12.238;2023-05-21T15:33:55;28.10;99.90
21001;DHT22;10658;50.920;12.238;2023-05-21T15:37:56;27.80;99.90
21001;DHT22;10658;50.920;12.238;2023-05-21T15:41:57;27.50;99.90
21001;DHT22;10658;50.920;12.238;2023-05-21T15:45:57;27.50;99.90
21001;DHT22;10658;50.920;12.238;2023-05-21T15:49:58;27.40;99.90
21001;DHT22;10658;50.920;12.238;2023-05-21T15:53:59;27.30;99.90
21001;DHT22;10658;50.920;12.238;2023-05-21T15:58:02;27.30;99.90
21001;DHT22;10658;50.920;12.238;2023-05-21T16:02:03;27.20;99.90
21001;DHT22;10658;50.920;12.238;2023-05-21T16:06:03;27.20;99.90
21001;DHT22;10658;50.920;12.238;2023-05-21T16:10:08;26.80;99.90
21001;DHT22;10658;50.920;12.238;2023-05-21T16:14:11;26.40;99.90
21001;DHT22;10658;50.920;12.238;2023-05-21T16:18:11;26.00;99.90
21001;DHT22;10658;50.920;12.238;2023-05-21T16:22:12;25.90;99.90
21001;DHT22;10658;50.920;12.238;2023-05-21T16:26:13;26.00;99.90
21001;DHT22;10658;50.920;12.238;2023-05-21T16:30:13;26.10;99.90
21001;DHT22;10658;50.920;12.238;2023-05-21T16:34:14;26.10;99.90
21001;DHT22;10658;50.920;12.238;2023-05-21T16:38:15;25.90;99.90
21001;DHT22;10658;50.920;12.238;2023-05-21T16:42:16;25.60;99.90
21001;DHT22;10658;50.920;12.238;2023-05-21T16:46:17;25.40;99.90
21001;DHT22;10658;50.920;12.238;2023-05-21T16:50:18;25.20;99.90
21001;DHT22;10658;50.920;12.238;2023-05-21T16:54:18;25.00;99.90
21001;DHT22;10658;50.920;12.238;2023-05-21T16:58:20;24.90;99.90
21001;DHT22;10658;50.920;12.238;2023-05-21T17:02:21;24.90;99.90
21001;DHT22;10658;50.920;12.238;2023-05-21T17:06:22;24.70;99.90
21001;DHT22;10658;50.920;12.238;2023-05-21T17:10:23;24.50;99.90
21001;DHT22;10658;50.920;12.238;2023-05-21T17:14:27;24.30;99.90
21001;DHT22;10658;50.920;12.238;2023-05-21T17:18:28;24.10;99.90
21001;DHT22;10658;50.920;12.238;2023-05-21T17:22:31;24.00;99.90
21001;DHT22;10658;50.920;12.238;2023-05-21T17:26:31;23.80;99.90
21001;DHT22;10658;50.920;12.238;2023-05-21T17:30:32;23.70;99.90
21001;DHT22;10658;50.920;12.238;2023-05-21T17:34:33;23.60;99.90
21001;DHT22;10658;50.920;12.238;2023-05-21T17:38:34;23.50;99.90
21001;DHT22;10658;50.920;12.238;2023-05-21T17:42:34;23.40;99.90
21001;DHT22;10658;50.920;12.238;2023-05-21T17:46:35;23.30;99.90
21001;DHT22;10658;50.920;12.238;2023-05-21T17:50:36;23.10;99.90
21001;DHT22;10658;50.920;12.238;2023-05-21T17:54:37;22.90;99.90
21001;DHT22;10658;50.920;12.238;2023-05-21T17:58:37;22.80;99.90
21001;DHT22;10658;50.920;12.238;2023-05-21T18:02:38;22.70;99.90
21001;DHT22;10658;50.920;12.238;2023-05-21T18:06:39;22.60;99.90
21001;DHT22;10658;50.920;12.238;2023-05-21T18:10:40;22.50;99.90
21001;DHT22;10658;50.920;12.238;2023-05-21T18:14:40;22.30;99.90
21001;DHT22;10658;50.920;12.238;2023-05-21T18:18:42;22.20;99.90
21001;DHT22;10658;50.920;12.238;2023-05-21T18:22:43;22.10;99.90
21001;DHT22;10658;50.920;12.238;2023-05-21T18:26:44;22.00;99.90
21001;DHT22;10658;50.920;12.238;2023-05-21T18:30:45;21.90;99.90
21001;DHT22;10658;50.920;12.238;2023-05-21T18:34:45;21.80;99.90
21001;DHT22;10658;50.920;12.238;2023-05-21T18:38:47;21.60;99.90
21001;DHT22;10658;50.920;12.238;2023-05-21T18:42:48;21.50;99.90
21001;DHT22;10658;50.920;12.238;2023-05-21T18:46:49;21.40;99.90
21001;DHT22;10658;50.920;12.238;2023-05-21T18:50:51;21.30;99.90
21001;DHT22;10658;50.920;12.238;2023-05-21T18:54:53;21.20;99.90
21001;DHT22;10658;50.920;12.238;2023-05-21T18:58:53;21.10;99.90
21001;DHT22;10658;50.920;12.238;2023-05-21T19:02:54;20.90;99.90
21001;DHT22;10658;50.920;12.238;2023-05-21T19:06:55;20.90;99.90
21001;DHT22;10658;50.920;12.238;2023-05-21T19:11:34;20.80;99.90
21001;DHT22;10658;50.920;12.238;2023-05-21T19:15:39;20.80;99.90
21001;DHT22;10658;50.920;12.238;2023-05-21T19:19:43;20.70;99.90
21001;DHT22;10658;50.920;12.238;2023-05-21T19:23:44;20.60;99.90
21001;DHT22;10658;50.920;12.238;2023-05-21T19:27:45;20.50;99.90
21001;DHT22;10658;50.920;12.238;2023-05-21T19:31:46;20.40;99.90
21001;DHT22;10658;50.920;12.238;2023-05-21T19:35:46;20.40;99.90
21001;DHT22;10658;50.920;12.238;2023-05-21T19:39:47;20.30;99.90
21001;DHT22;10658;50.920;12.238;2023-05-21T19:43:49;20.20;99.90
21001;DHT22;10658;50.920;12.238;2023-05-21T19:47:50;20.10;99.90
21001;DHT22;10658;50.920;12.238;2023-05-21T19:52:03;20.00;99.90
21001;DHT22;10658;50.920;12.238;2023-05-21T19:56:43;20.00;99.90
21001;DHT22;10658;50.920;12.238;2023-05-21T20:00:45;19.90;99.90
21001;DHT22;10658;50.920;12.238;2023-05-21T20:05:29;19.80;99.90
21001;DHT22;10658;50.920;12.238;2023-05-21T20:09:30;19.70;99.90
21001;DHT22;10658;50.920;12.238;2023-05-21T20:13:31;19.60;99.90
21001;DHT22;10658;50.920;12.238;2023-05-21T20:17:32;19.50;99.90
21001;DHT22;10658;50.920;12.238;2023-05-21T20:21:38;19.40;99.90
21001;DHT22;10658;50.920;12.238;2023-05-21T20:25:38;19.30;99.90
21001;DHT22;10658;50.920;12.238;2023-05-21T20:29:39;19.30;99.90
21001;DHT22;10658;50.920;12.238;2023-05-21T20:33:42;19.20;99.90
21001;DHT22;10658;50.920;12.238;2023-05-21T20:47:00;18.90;99.90
21001;DHT22;10658;50.920;12.238;2023-05-21T20:51:04;18.90;99.90
21001;DHT22;10658;50.920;12.238;2023-05-21T20:55:05;18.90;99.90
21001;DHT22;10658;50.920;12.238;2023-05-21T20:59:06;18.80;99.90
21001;DHT22;10658;50.920;12.238;2023-05-21T21:03:07;18.70;99.90
21001;DHT22;10658;50.920;12.238;2023-05-21T21:07:10;18.60;99.90
21001;DHT22;10658;50.920;12.238;2023-05-21T21:11:11;18.60;99.90
21001;DHT22;10658;50.920;12.238;2023-05-21T21:15:12;18.60;99.90
21001;DHT22;10658;50.920;12.238;2023-05-21T21:19:13;18.50;99.90
21001;DHT22;10658;50.920;12.238;2023-05-21T21:23:14;18.40;99.90
21001;DHT22;10658;50.920;12.238;2023-05-21T21:27:15;18.30;99.90
21001;DHT22;10658;50.920;12.238;2023-05-21T21:31:16;18.30;99.90
21001;DHT22;10658;50.920;12.238;2023-05-21T21:35:17;18.20;99.90
21001;DHT22;10658;50.920;12.238;2023-05-21T21:39:18;18.20;99.90
21001;DHT22;10658;50.920;12.238;2023-05-21T21:43:18;18.00;99.90
21001;DHT22;10658;50.920;12.238;2023-05-21T21:47:19;17.60;99.90
21001;DHT22;10658;50.920;12.238;2023-05-21T21:51:20;17.50;99.90
21001;DHT22;10658;50.920;12.238;2023-05-21T21:55:21;17.60;99.90
21001;DHT22;10658;50.920;12.238;2023-05-21T21:59:21;17.70;99.90
21001;DHT22;10658;50.920;12.238;2023-05-21T22:03:23;17.70;99.90
21001;DHT22;10658;50.920;12.238;2023-05-21T22:07:23;17.70;99.90
21001;DHT22;10658;50.920;12.238;2023-05-21T22:11:25;17.60;99.90
21001;DHT22;10658;50.920;12.238;2023-05-21T22:15:27;17.60;99.90
21001;DHT22;10658;50.920;12.238;2023-05-21T22:19:29;17.60;99.90
21001;DHT22;10658;50.920;12.238;2023-05-21T22:23:32;17.50;99.90
21001;DHT22;10658;50.920;12.238;2023-05-21T22:27:32;17.40;99.90
21001;DHT22;10658;50.920;12.238;2023-05-21T22:31:33;17.00;99.90
21001;DHT22;10658;50.920;12.238;2023-05-21T22:35:34;16.80;99.90
21001;DHT22;10658;50.920;12.238;2023-05-21T22:39:35;16.50;99.90
21001;DHT22;10658;50.920;12.238;2023-05-21T22:43:36;16.30;99.90
21001;DHT22;10658;50.920;12.238;2023-05-21T22:47:36;16.40;99.90
21001;DHT22;10658;50.920;12.238;2023-05-21T22:51:38;16.60;99.90
21001;DHT22;10658;50.920;12.238;2023-05-21T22:55:44;16.60;99.90
21001;DHT22;10658;50.920;12.238;2023-05-21T22:59:45;16.60;99.90
21001;DHT22;10658;50.920;12.238;2023-05-21T23:03:45;16.60;99.90
21001;DHT22;10658;50.920;12.238;2023-05-21T23:07:46;16.50;99.90
21001;DHT22;10658;50.920;12.238;2023-05-21T23:11:47;16.40;99.90
21001;DHT22;10658;50.920;12.238;2023-05-21T23:15:48;16.40;99.90
21001;DHT22;10658;50.920;12.238;2023-05-21T23:19:50;16.50;99.90
21001;DHT22;10658;50.920;12.238;2023-05-21T23:23:51;16.60;99.90
21001;DHT22;10658;50.920;12.238;2023-05-21T23:27:52;16.60;99.90
21001;DHT22;10658;50.920;12.238;2023-05-21T23:31:53;16.70;99.90
21001;DHT22;10658;50.920;12.238;2023-05-21T23:35:54;16.70;99.90
21001;DHT22;10658;50.920;12.238;2023-05-21T23:39:55;16.70;99.90
21001;DHT22;10658;50.920;12.238;2023-05-21T23:43:55;16.80;99.90
21001;DHT22;10658;50.920;12.238;2023-05-21T23:47:56;16.80;99.90
21001;DHT22;10658;50.920;12.238;2023-05-21T23:51:57;16.80;99.90
21001;DHT22;10658;50.920;12.238;2023-05-21T23:55:58;16.70;99.90
21001;DHT22;10658;50.920;12.238;2023-05-21T23:59:58;16.70;99.90
